Terminal Aerodrome Forecast
Issued by NWS Wilmington, OH

Current Version | Previous Version | Graphics & Text | Print | Product List | Glossary On
Versions: 1 2 3 4 5 6 7 8 9 10 11 12 13 14 15 16 17 18 19 20 21 22 23 24 25 26 27 28 29 30 31
626
FTUS41 KILN 151729
TAFDAY
TAF
KDAY 151729Z 1518/1618 07006KT 4SM BR OVC110
     FM160000 09004KT P6SM SCT012 OVC050
     FM160800 10003KT 4SM -FZDZ BR OVC012
     FM161200 12005KT 4SM -FZDZ BR OVC007
     FM161500 12005KT P6SM OVC007=

USA.gov is the U.S. government's official web portal to all federal, state and local government web resources and services.